sensor_id;sensor_type;location;lat;lon;timestamp;P1;durP1;ratioP1;P2;durP2;ratioP2
27618;SDS011;15039;50.830;4.730;2022-10-31T00:00:08;16.38;;;8.50;;
27618;SDS011;15039;50.830;4.730;2022-10-31T00:02:34;14.38;;;7.80;;
27618;SDS011;15039;50.830;4.730;2022-10-31T00:04:59;14.57;;;8.23;;
27618;SDS011;15039;50.830;4.730;2022-10-31T00:07:25;9.98;;;7.32;;
27618;SDS011;15039;50.830;4.730;2022-10-31T00:09:50;13.20;;;7.47;;
27618;SDS011;15039;50.830;4.730;2022-10-31T00:12:16;12.20;;;7.68;;
27618;SDS011;15039;50.830;4.730;2022-10-31T00:14:42;11.10;;;7.78;;
27618;SDS011;15039;50.830;4.730;2022-10-31T00:17:07;14.13;;;8.45;;
27618;SDS011;15039;50.830;4.730;2022-10-31T00:19:34;9.60;;;7.05;;
27618;SDS011;15039;50.830;4.730;2022-10-31T00:21:59;14.93;;;7.80;;
27618;SDS011;15039;50.830;4.730;2022-10-31T00:24:25;14.93;;;7.78;;
27618;SDS011;15039;50.830;4.730;2022-10-31T00:26:50;11.52;;;7.53;;
27618;SDS011;15039;50.830;4.730;2022-10-31T00:29:20;9.50;;;6.28;;
27618;SDS011;15039;50.830;4.730;2022-10-31T00:31:46;11.00;;;7.50;;
27618;SDS011;15039;50.830;4.730;2022-10-31T00:34:14;10.52;;;7.43;;
27618;SDS011;15039;50.830;4.730;2022-10-31T00:36:40;16.30;;;6.60;;
27618;SDS011;15039;50.830;4.730;2022-10-31T00:39:05;10.07;;;6.53;;
27618;SDS011;15039;50.830;4.730;2022-10-31T00:41:31;13.13;;;7.05;;
27618;SDS011;15039;50.830;4.730;2022-10-31T00:43:57;8.38;;;5.97;;
27618;SDS011;15039;50.830;4.730;2022-10-31T00:46:25;11.90;;;7.05;;
27618;SDS011;15039;50.830;4.730;2022-10-31T00:48:51;14.27;;;6.13;;
27618;SDS011;15039;50.830;4.730;2022-10-31T00:51:23;10.40;;;5.93;;
27618;SDS011;15039;50.830;4.730;2022-10-31T00:53:50;13.52;;;6.03;;
27618;SDS011;15039;50.830;4.730;2022-10-31T00:56:16;8.98;;;6.15;;
27618;SDS011;15039;50.830;4.730;2022-10-31T00:58:42;8.27;;;5.70;;
27618;SDS011;15039;50.830;4.730;2022-10-31T01:01:07;9.05;;;5.50;;
27618;SDS011;15039;50.830;4.730;2022-10-31T01:03:33;10.10;;;5.47;;
27618;SDS011;15039;50.830;4.730;2022-10-31T01:06:00;9.85;;;6.18;;
27618;SDS011;15039;50.830;4.730;2022-10-31T01:08:29;9.38;;;6.05;;
27618;SDS011;15039;50.830;4.730;2022-10-31T01:13:43;10.55;;;6.30;;
27618;SDS011;15039;50.830;4.730;2022-10-31T01:16:11;12.23;;;6.50;;
27618;SDS011;15039;50.830;4.730;2022-10-31T01:18:41;10.30;;;6.30;;
27618;SDS011;15039;50.830;4.730;2022-10-31T01:21:08;14.90;;;7.25;;
27618;SDS011;15039;50.830;4.730;2022-10-31T01:23:39;11.25;;;7.05;;
27618;SDS011;15039;50.830;4.730;2022-10-31T01:26:07;10.98;;;7.13;;
27618;SDS011;15039;50.830;4.730;2022-10-31T01:28:38;12.52;;;7.22;;
27618;SDS011;15039;50.830;4.730;2022-10-31T01:31:08;9.88;;;6.50;;
27618;SDS011;15039;50.830;4.730;2022-10-31T01:33:34;8.95;;;6.22;;
27618;SDS011;15039;50.830;4.730;2022-10-31T01:36:20;14.73;;;6.60;;
27618;SDS011;15039;50.830;4.730;2022-10-31T01:38:47;9.25;;;6.53;;
27618;SDS011;15039;50.830;4.730;2022-10-31T01:41:15;13.05;;;6.50;;
27618;SDS011;15039;50.830;4.730;2022-10-31T01:46:16;14.60;;;6.78;;
27618;SDS011;15039;50.830;4.730;2022-10-31T01:48:48;8.75;;;6.22;;
27618;SDS011;15039;50.830;4.730;2022-10-31T01:51:17;9.68;;;6.90;;
27618;SDS011;15039;50.830;4.730;2022-10-31T01:53:46;12.25;;;6.60;;
27618;SDS011;15039;50.830;4.730;2022-10-31T01:56:13;11.75;;;6.25;;
27618;SDS011;15039;50.830;4.730;2022-10-31T01:58:42;15.07;;;6.38;;
27618;SDS011;15039;50.830;4.730;2022-10-31T02:01:12;9.18;;;6.10;;
27618;SDS011;15039;50.830;4.730;2022-10-31T02:03:40;10.85;;;5.80;;
27618;SDS011;15039;50.830;4.730;2022-10-31T02:06:06;10.43;;;6.45;;
27618;SDS011;15039;50.830;4.730;2022-10-31T02:08:37;10.88;;;6.53;;
27618;SDS011;15039;50.830;4.730;2022-10-31T02:11:04;9.73;;;6.50;;
27618;SDS011;15039;50.830;4.730;2022-10-31T02:13:32;11.27;;;6.38;;
27618;SDS011;15039;50.830;4.730;2022-10-31T02:15:59;11.48;;;6.00;;
27618;SDS011;15039;50.830;4.730;2022-10-31T02:18:28;12.25;;;6.85;;
27618;SDS011;15039;50.830;4.730;2022-10-31T02:26:45;12.05;;;6.30;;
27618;SDS011;15039;50.830;4.730;2022-10-31T02:29:43;8.90;;;5.85;;
27618;SDS011;15039;50.830;4.730;2022-10-31T02:35:34;10.88;;;6.93;;
27618;SDS011;15039;50.830;4.730;2022-10-31T02:38:19;8.25;;;6.00;;
27618;SDS011;15039;50.830;4.730;2022-10-31T02:43:37;9.50;;;6.63;;
27618;SDS011;15039;50.830;4.730;2022-10-31T02:49:02;10.10;;;6.95;;
27618;SDS011;15039;50.830;4.730;2022-10-31T02:51:32;11.88;;;6.45;;
27618;SDS011;15039;50.830;4.730;2022-10-31T02:53:59;11.90;;;6.68;;
27618;SDS011;15039;50.830;4.730;2022-10-31T02:56:25;11.18;;;6.78;;
27618;SDS011;15039;50.830;4.730;2022-10-31T02:58:58;9.45;;;6.18;;
27618;SDS011;15039;50.830;4.730;2022-10-31T03:01:42;9.52;;;6.35;;
27618;SDS011;15039;50.830;4.730;2022-10-31T03:15:37;14.68;;;6.72;;
27618;SDS011;15039;50.830;4.730;2022-10-31T03:18:24;13.00;;;6.60;;
27618;SDS011;15039;50.830;4.730;2022-10-31T03:21:34;10.05;;;7.28;;
27618;SDS011;15039;50.830;4.730;2022-10-31T03:23:44;9.13;;;6.38;;
27618;SDS011;15039;50.830;4.730;2022-10-31T03:26:13;10.65;;;6.97;;
27618;SDS011;15039;50.830;4.730;2022-10-31T03:28:55;9.38;;;6.25;;
27618;SDS011;15039;50.830;4.730;2022-10-31T03:31:29;10.88;;;6.40;;
27618;SDS011;15039;50.830;4.730;2022-10-31T03:34:02;10.70;;;6.65;;
27618;SDS011;15039;50.830;4.730;2022-10-31T03:36:30;12.15;;;6.68;;
27618;SDS011;15039;50.830;4.730;2022-10-31T03:38:58;11.93;;;6.47;;
27618;SDS011;15039;50.830;4.730;2022-10-31T03:41:27;11.77;;;6.85;;
27618;SDS011;15039;50.830;4.730;2022-10-31T03:43:59;12.02;;;6.93;;
27618;SDS011;15039;50.830;4.730;2022-10-31T03:46:32;12.60;;;7.35;;
27618;SDS011;15039;50.830;4.730;2022-10-31T03:49:02;10.65;;;6.97;;
27618;SDS011;15039;50.830;4.730;2022-10-31T03:51:33;14.68;;;7.90;;
27618;SDS011;15039;50.830;4.730;2022-10-31T04:00:05;11.50;;;7.90;;
27618;SDS011;15039;50.830;4.730;2022-10-31T04:02:40;14.13;;;8.35;;
27618;SDS011;15039;50.830;4.730;2022-10-31T04:05:10;13.55;;;7.65;;
27618;SDS011;15039;50.830;4.730;2022-10-31T04:07:39;12.77;;;8.00;;
27618;SDS011;15039;50.830;4.730;2022-10-31T04:10:09;13.38;;;7.50;;
27618;SDS011;15039;50.830;4.730;2022-10-31T04:15:05;15.95;;;7.82;;
27618;SDS011;15039;50.830;4.730;2022-10-31T04:17:40;13.63;;;8.00;;
27618;SDS011;15039;50.830;4.730;2022-10-31T04:20:09;12.95;;;8.10;;
27618;SDS011;15039;50.830;4.730;2022-10-31T04:22:35;12.23;;;7.20;;
27618;SDS011;15039;50.830;4.730;2022-10-31T04:25:00;16.92;;;7.50;;
27618;SDS011;15039;50.830;4.730;2022-10-31T04:27:26;16.88;;;8.73;;
27618;SDS011;15039;50.830;4.730;2022-10-31T04:29:52;13.60;;;8.20;;
27618;SDS011;15039;50.830;4.730;2022-10-31T04:32:17;16.08;;;7.60;;
27618;SDS011;15039;50.830;4.730;2022-10-31T04:34:43;17.70;;;8.55;;
27618;SDS011;15039;50.830;4.730;2022-10-31T04:37:11;14.02;;;8.30;;
27618;SDS011;15039;50.830;4.730;2022-10-31T04:39:37;13.88;;;7.50;;
27618;SDS011;15039;50.830;4.730;2022-10-31T04:42:02;14.77;;;8.05;;
27618;SDS011;15039;50.830;4.730;2022-10-31T04:44:28;14.15;;;7.60;;
27618;SDS011;15039;50.830;4.730;2022-10-31T04:46:54;9.75;;;7.07;;
27618;SDS011;15039;50.830;4.730;2022-10-31T04:49:19;14.70;;;8.18;;
27618;SDS011;15039;50.830;4.730;2022-10-31T04:51:48;11.45;;;7.60;;
27618;SDS011;15039;50.830;4.730;2022-10-31T04:54:20;12.50;;;7.40;;
27618;SDS011;15039;50.830;4.730;2022-10-31T04:56:46;14.07;;;8.30;;
27618;SDS011;15039;50.830;4.730;2022-10-31T04:59:16;11.45;;;7.53;;
27618;SDS011;15039;50.830;4.730;2022-10-31T05:01:41;15.70;;;7.88;;
27618;SDS011;15039;50.830;4.730;2022-10-31T05:04:07;11.93;;;6.97;;
27618;SDS011;15039;50.830;4.730;2022-10-31T05:06:36;13.02;;;7.18;;
27618;SDS011;15039;50.830;4.730;2022-10-31T05:09:01;12.47;;;7.37;;
27618;SDS011;15039;50.830;4.730;2022-10-31T05:11:27;10.15;;;7.22;;
27618;SDS011;15039;50.830;4.730;2022-10-31T05:13:54;11.95;;;7.38;;
27618;SDS011;15039;50.830;4.730;2022-10-31T05:16:20;16.55;;;8.00;;
27618;SDS011;15039;50.830;4.730;2022-10-31T05:18:45;10.68;;;7.47;;
27618;SDS011;15039;50.830;4.730;2022-10-31T05:21:11;11.88;;;7.85;;
27618;SDS011;15039;50.830;4.730;2022-10-31T05:23:36;11.75;;;7.50;;
27618;SDS011;15039;50.830;4.730;2022-10-31T05:26:05;11.25;;;7.28;;
27618;SDS011;15039;50.830;4.730;2022-10-31T05:28:30;11.63;;;7.28;;
27618;SDS011;15039;50.830;4.730;2022-10-31T05:30:56;11.48;;;7.53;;
27618;SDS011;15039;50.830;4.730;2022-10-31T05:33:22;11.20;;;7.32;;
27618;SDS011;15039;50.830;4.730;2022-10-31T05:35:47;13.65;;;7.35;;
27618;SDS011;15039;50.830;4.730;2022-10-31T05:38:13;12.02;;;7.05;;
27618;SDS011;15039;50.830;4.730;2022-10-31T05:40:39;11.25;;;7.38;;
27618;SDS011;15039;50.830;4.730;2022-10-31T05:43:07;11.27;;;7.47;;
27618;SDS011;15039;50.830;4.730;2022-10-31T05:45:34;12.73;;;6.57;;
27618;SDS011;15039;50.830;4.730;2022-10-31T05:48:00;11.38;;;6.57;;
27618;SDS011;15039;50.830;4.730;2022-10-31T05:50:27;13.23;;;6.68;;
27618;SDS011;15039;50.830;4.730;2022-10-31T05:53:02;8.30;;;6.47;;
27618;SDS011;15039;50.830;4.730;2022-10-31T05:55:29;8.95;;;6.50;;
27618;SDS011;15039;50.830;4.730;2022-10-31T05:57:55;14.25;;;7.25;;
27618;SDS011;15039;50.830;4.730;2022-10-31T06:00:21;13.38;;;6.55;;
27618;SDS011;15039;50.830;4.730;2022-10-31T06:02:48;10.45;;;6.55;;
27618;SDS011;15039;50.830;4.730;2022-10-31T06:05:16;11.25;;;6.68;;
27618;SDS011;15039;50.830;4.730;2022-10-31T06:07:45;10.30;;;7.10;;
27618;SDS011;15039;50.830;4.730;2022-10-31T06:10:11;9.65;;;6.63;;
27618;SDS011;15039;50.830;4.730;2022-10-31T06:12:36;11.68;;;6.50;;
27618;SDS011;15039;50.830;4.730;2022-10-31T06:15:03;11.82;;;6.40;;
27618;SDS011;15039;50.830;4.730;2022-10-31T06:17:30;18.17;;;7.53;;
27618;SDS011;15039;50.830;4.730;2022-10-31T06:19:56;9.82;;;6.35;;
27618;SDS011;15039;50.830;4.730;2022-10-31T06:22:22;8.82;;;7.30;;
27618;SDS011;15039;50.830;4.730;2022-10-31T06:24:48;8.50;;;6.38;;
27618;SDS011;15039;50.830;4.730;2022-10-31T06:27:15;12.45;;;7.05;;
27618;SDS011;15039;50.830;4.730;2022-10-31T06:29:41;7.75;;;6.78;;
27618;SDS011;15039;50.830;4.730;2022-10-31T06:32:09;11.82;;;7.72;;
27618;SDS011;15039;50.830;4.730;2022-10-31T06:34:35;13.50;;;7.30;;
27618;SDS011;15039;50.830;4.730;2022-10-31T06:37:01;12.88;;;8.18;;
27618;SDS011;15039;50.830;4.730;2022-10-31T06:39:27;14.50;;;8.18;;
27618;SDS011;15039;50.830;4.730;2022-10-31T06:41:53;13.93;;;8.07;;
27618;SDS011;15039;50.830;4.730;2022-10-31T06:44:18;12.75;;;7.60;;
27618;SDS011;15039;50.830;4.730;2022-10-31T06:46:46;17.15;;;9.10;;
27618;SDS011;15039;50.830;4.730;2022-10-31T06:49:13;11.90;;;8.95;;
27618;SDS011;15039;50.830;4.730;2022-10-31T06:51:38;12.98;;;8.77;;
27618;SDS011;15039;50.830;4.730;2022-10-31T06:54:04;11.63;;;9.00;;
27618;SDS011;15039;50.830;4.730;2022-10-31T06:56:31;12.10;;;8.50;;
27618;SDS011;15039;50.830;4.730;2022-10-31T06:58:57;11.00;;;7.15;;
27618;SDS011;15039;50.830;4.730;2022-10-31T07:01:23;11.48;;;7.80;;
27618;SDS011;15039;50.830;4.730;2022-10-31T07:03:48;10.68;;;7.90;;
27618;SDS011;15039;50.830;4.730;2022-10-31T07:06:14;10.57;;;8.35;;
27618;SDS011;15039;50.830;4.730;2022-10-31T07:08:40;12.52;;;8.75;;
27618;SDS011;15039;50.830;4.730;2022-10-31T07:11:05;16.20;;;9.20;;
27618;SDS011;15039;50.830;4.730;2022-10-31T07:13:33;18.67;;;9.68;;
27618;SDS011;15039;50.830;4.730;2022-10-31T07:15:59;13.68;;;9.75;;
27618;SDS011;15039;50.830;4.730;2022-10-31T07:18:26;14.88;;;9.90;;
27618;SDS011;15039;50.830;4.730;2022-10-31T07:20:52;17.58;;;9.90;;
27618;SDS011;15039;50.830;4.730;2022-10-31T07:23:18;13.35;;;9.95;;
27618;SDS011;15039;50.830;4.730;2022-10-31T07:25:45;13.57;;;9.90;;
27618;SDS011;15039;50.830;4.730;2022-10-31T07:28:11;15.68;;;10.00;;
27618;SDS011;15039;50.830;4.730;2022-10-31T07:30:37;14.65;;;9.65;;
27618;SDS011;15039;50.830;4.730;2022-10-31T07:33:03;16.63;;;10.32;;
27618;SDS011;15039;50.830;4.730;2022-10-31T07:35:30;12.63;;;9.55;;
27618;SDS011;15039;50.830;4.730;2022-10-31T07:37:57;12.57;;;10.68;;
27618;SDS011;15039;50.830;4.730;2022-10-31T07:40:23;14.52;;;10.63;;
27618;SDS011;15039;50.830;4.730;2022-10-31T07:42:51;14.00;;;9.82;;
27618;SDS011;15039;50.830;4.730;2022-10-31T07:45:19;15.25;;;10.35;;
27618;SDS011;15039;50.830;4.730;2022-10-31T07:50:14;14.75;;;9.57;;
27618;SDS011;15039;50.830;4.730;2022-10-31T07:52:45;13.27;;;9.73;;
27618;SDS011;15039;50.830;4.730;2022-10-31T07:55:11;12.02;;;9.10;;
27618;SDS011;15039;50.830;4.730;2022-10-31T07:57:36;13.70;;;9.35;;
27618;SDS011;15039;50.830;4.730;2022-10-31T08:00:03;11.80;;;9.10;;
27618;SDS011;15039;50.830;4.730;2022-10-31T08:02:30;14.70;;;9.13;;
27618;SDS011;15039;50.830;4.730;2022-10-31T08:04:59;12.65;;;8.20;;
27618;SDS011;15039;50.830;4.730;2022-10-31T08:07:27;12.73;;;8.73;;
27618;SDS011;15039;50.830;4.730;2022-10-31T08:09:54;11.18;;;7.75;;
27618;SDS011;15039;50.830;4.730;2022-10-31T08:12:21;8.52;;;7.63;;
27618;SDS011;15039;50.830;4.730;2022-10-31T08:14:46;11.07;;;8.27;;
27618;SDS011;15039;50.830;4.730;2022-10-31T08:17:12;13.48;;;8.40;;
27618;SDS011;15039;50.830;4.730;2022-10-31T08:19:39;13.20;;;8.75;;
27618;SDS011;15039;50.830;4.730;2022-10-31T08:22:04;11.55;;;7.93;;
27618;SDS011;15039;50.830;4.730;2022-10-31T08:24:31;12.57;;;8.35;;
27618;SDS011;15039;50.830;4.730;2022-10-31T08:26:56;14.07;;;9.43;;
27618;SDS011;15039;50.830;4.730;2022-10-31T08:29:22;12.90;;;8.80;;
27618;SDS011;15039;50.830;4.730;2022-10-31T08:31:48;12.80;;;9.00;;
27618;SDS011;15039;50.830;4.730;2022-10-31T08:34:13;11.52;;;8.23;;
27618;SDS011;15039;50.830;4.730;2022-10-31T08:36:39;12.32;;;8.10;;
27618;SDS011;15039;50.830;4.730;2022-10-31T08:39:07;12.63;;;8.15;;
27618;SDS011;15039;50.830;4.730;2022-10-31T08:41:34;15.43;;;8.75;;
27618;SDS011;15039;50.830;4.730;2022-10-31T08:44:00;14.07;;;8.70;;
27618;SDS011;15039;50.830;4.730;2022-10-31T08:46:27;13.48;;;8.10;;
27618;SDS011;15039;50.830;4.730;2022-10-31T08:48:52;12.32;;;8.32;;
27618;SDS011;15039;50.830;4.730;2022-10-31T08:51:18;12.73;;;7.45;;
27618;SDS011;15039;50.830;4.730;2022-10-31T08:53:44;14.02;;;7.95;;
27618;SDS011;15039;50.830;4.730;2022-10-31T08:56:11;13.68;;;7.75;;
27618;SDS011;15039;50.830;4.730;2022-10-31T08:58:37;12.23;;;8.27;;
27618;SDS011;15039;50.830;4.730;2022-10-31T09:01:02;9.68;;;8.10;;
27618;SDS011;15039;50.830;4.730;2022-10-31T09:03:29;13.75;;;7.85;;
27618;SDS011;15039;50.830;4.730;2022-10-31T09:05:59;13.27;;;7.75;;
27618;SDS011;15039;50.830;4.730;2022-10-31T09:08:28;13.07;;;7.68;;
27618;SDS011;15039;50.830;4.730;2022-10-31T09:10:56;13.00;;;7.40;;
27618;SDS011;15039;50.830;4.730;2022-10-31T09:13:22;12.13;;;8.02;;
27618;SDS011;15039;50.830;4.730;2022-10-31T09:15:49;13.35;;;7.47;;
27618;SDS011;15039;50.830;4.730;2022-10-31T09:18:17;11.40;;;7.50;;
27618;SDS011;15039;50.830;4.730;2022-10-31T09:20:47;13.30;;;8.40;;
27618;SDS011;15039;50.830;4.730;2022-10-31T09:23:14;12.15;;;7.57;;
27618;SDS011;15039;50.830;4.730;2022-10-31T09:25:42;13.13;;;7.83;;
27618;SDS011;15039;50.830;4.730;2022-10-31T09:28:10;11.95;;;7.75;;
27618;SDS011;15039;50.830;4.730;2022-10-31T09:30:40;17.23;;;6.97;;
27618;SDS011;15039;50.830;4.730;2022-10-31T09:33:12;9.57;;;7.07;;
27618;SDS011;15039;50.830;4.730;2022-10-31T09:35:39;9.80;;;7.35;;
27618;SDS011;15039;50.830;4.730;2022-10-31T09:38:06;11.00;;;6.85;;
27618;SDS011;15039;50.830;4.730;2022-10-31T09:43:07;12.48;;;6.93;;
27618;SDS011;15039;50.830;4.730;2022-10-31T09:45:47;10.48;;;7.40;;
27618;SDS011;15039;50.830;4.730;2022-10-31T09:51:00;10.85;;;6.75;;
27618;SDS011;15039;50.830;4.730;2022-10-31T09:53:46;11.07;;;6.45;;
27618;SDS011;15039;50.830;4.730;2022-10-31T09:56:14;11.20;;;6.75;;
27618;SDS011;15039;50.830;4.730;2022-10-31T09:58:43;12.52;;;6.47;;
27618;SDS011;15039;50.830;4.730;2022-10-31T10:01:17;10.50;;;6.25;;
27618;SDS011;15039;50.830;4.730;2022-10-31T10:03:57;12.70;;;6.97;;
27618;SDS011;15039;50.830;4.730;2022-10-31T10:06:29;12.68;;;6.38;;
27618;SDS011;15039;50.830;4.730;2022-10-31T10:08:59;14.23;;;6.90;;
27618;SDS011;15039;50.830;4.730;2022-10-31T10:14:19;13.40;;;7.05;;
27618;SDS011;15039;50.830;4.730;2022-10-31T10:22:25;14.98;;;7.18;;
27618;SDS011;15039;50.830;4.730;2022-10-31T10:33:11;13.48;;;7.72;;
27618;SDS011;15039;50.830;4.730;2022-10-31T10:35:50;14.55;;;7.45;;
27618;SDS011;15039;50.830;4.730;2022-10-31T10:38:48;11.23;;;6.90;;
27618;SDS011;15039;50.830;4.730;2022-10-31T10:41:21;12.80;;;7.40;;
27618;SDS011;15039;50.830;4.730;2022-10-31T10:43:49;12.18;;;7.90;;
27618;SDS011;15039;50.830;4.730;2022-10-31T10:46:17;12.88;;;8.05;;
27618;SDS011;15039;50.830;4.730;2022-10-31T10:54:37;13.40;;;7.35;;
27618;SDS011;15039;50.830;4.730;2022-10-31T11:02:58;13.38;;;7.30;;
27618;SDS011;15039;50.830;4.730;2022-10-31T11:05:26;13.25;;;6.95;;
27618;SDS011;15039;50.830;4.730;2022-10-31T11:08:06;13.32;;;6.97;;
27618;SDS011;15039;50.830;4.730;2022-10-31T11:10:33;12.43;;;6.43;;
27618;SDS011;15039;50.830;4.730;2022-10-31T11:13:03;16.10;;;7.68;;
27618;SDS011;15039;50.830;4.730;2022-10-31T11:18:37;11.52;;;7.22;;
27618;SDS011;15039;50.830;4.730;2022-10-31T11:21:18;13.90;;;7.10;;
27618;SDS011;15039;50.830;4.730;2022-10-31T11:23:45;9.98;;;6.75;;
27618;SDS011;15039;50.830;4.730;2022-10-31T11:26:18;11.90;;;7.40;;
27618;SDS011;15039;50.830;4.730;2022-10-31T11:28:55;13.02;;;7.65;;
27618;SDS011;15039;50.830;4.730;2022-10-31T11:31:23;13.75;;;7.80;;
27618;SDS011;15039;50.830;4.730;2022-10-31T11:33:52;16.50;;;8.13;;
27618;SDS011;15039;50.830;4.730;2022-10-31T11:36:30;12.07;;;7.53;;
27618;SDS011;15039;50.830;4.730;2022-10-31T11:38:59;16.95;;;7.85;;
27618;SDS011;15039;50.830;4.730;2022-10-31T11:44:00;13.15;;;7.57;;
27618;SDS011;15039;50.830;4.730;2022-10-31T11:46:38;11.45;;;7.22;;
27618;SDS011;15039;50.830;4.730;2022-10-31T11:52:05;13.98;;;6.90;;
27618;SDS011;15039;50.830;4.730;2022-10-31T11:54:38;13.95;;;6.85;;
27618;SDS011;15039;50.830;4.730;2022-10-31T11:57:26;11.63;;;7.10;;
27618;SDS011;15039;50.830;4.730;2022-10-31T11:59:57;11.15;;;6.20;;
27618;SDS011;15039;50.830;4.730;2022-10-31T12:02:24;14.10;;;6.63;;
27618;SDS011;15039;50.830;4.730;2022-10-31T12:05:02;11.40;;;6.78;;
27618;SDS011;15039;50.830;4.730;2022-10-31T12:07:41;12.00;;;6.53;;
27618;SDS011;15039;50.830;4.730;2022-10-31T12:10:10;9.98;;;6.53;;
27618;SDS011;15039;50.830;4.730;2022-10-31T12:15:50;15.40;;;6.63;;
27618;SDS011;15039;50.830;4.730;2022-10-31T12:21:25;9.52;;;5.18;;
27618;SDS011;15039;50.830;4.730;2022-10-31T12:26:51;8.27;;;4.95;;
27618;SDS011;15039;50.830;4.730;2022-10-31T12:29:26;12.88;;;5.00;;
27618;SDS011;15039;50.830;4.730;2022-10-31T12:32:21;11.07;;;4.63;;
27618;SDS011;15039;50.830;4.730;2022-10-31T12:38:15;11.40;;;4.55;;
27618;SDS011;15039;50.830;4.730;2022-10-31T12:45:59;11.60;;;4.72;;
27618;SDS011;15039;50.830;4.730;2022-10-31T12:56:57;6.88;;;3.83;;
27618;SDS011;15039;50.830;4.730;2022-10-31T12:59:45;8.93;;;3.53;;
27618;SDS011;15039;50.830;4.730;2022-10-31T13:12:48;10.80;;;4.07;;
27618;SDS011;15039;50.830;4.730;2022-10-31T13:15:19;15.00;;;4.40;;
27618;SDS011;15039;50.830;4.730;2022-10-31T13:17:59;11.05;;;4.15;;
27618;SDS011;15039;50.830;4.730;2022-10-31T13:20:30;8.20;;;4.78;;
27618;SDS011;15039;50.830;4.730;2022-10-31T13:25:49;10.00;;;5.10;;
27618;SDS011;15039;50.830;4.730;2022-10-31T13:31:09;11.00;;;5.28;;
27618;SDS011;15039;50.830;4.730;2022-10-31T13:33:37;11.50;;;4.90;;
27618;SDS011;15039;50.830;4.730;2022-10-31T13:39:27;12.15;;;4.68;;
27618;SDS011;15039;50.830;4.730;2022-10-31T13:42:35;12.40;;;5.03;;
27618;SDS011;15039;50.830;4.730;2022-10-31T13:45:47;14.65;;;5.60;;
27618;SDS011;15039;50.830;4.730;2022-10-31T13:50:40;10.23;;;5.70;;
27618;SDS011;15039;50.830;4.730;2022-10-31T13:53:19;10.48;;;5.65;;
27618;SDS011;15039;50.830;4.730;2022-10-31T13:56:00;9.77;;;5.80;;
27618;SDS011;15039;50.830;4.730;2022-10-31T14:01:24;11.02;;;6.30;;
27618;SDS011;15039;50.830;4.730;2022-10-31T14:03:58;10.93;;;5.75;;
27618;SDS011;15039;50.830;4.730;2022-10-31T14:06:39;12.05;;;6.40;;
27618;SDS011;15039;50.830;4.730;2022-10-31T14:15:13;9.82;;;5.70;;
27618;SDS011;15039;50.830;4.730;2022-10-31T14:17:55;10.23;;;6.65;;
27618;SDS011;15039;50.830;4.730;2022-10-31T14:20:34;12.65;;;6.97;;
27618;SDS011;15039;50.830;4.730;2022-10-31T14:26:33;16.13;;;6.90;;
27618;SDS011;15039;50.830;4.730;2022-10-31T14:28:51;13.85;;;6.90;;
27618;SDS011;15039;50.830;4.730;2022-10-31T14:31:36;11.73;;;7.22;;
27618;SDS011;15039;50.830;4.730;2022-10-31T14:34:22;10.77;;;6.80;;
27618;SDS011;15039;50.830;4.730;2022-10-31T14:39:45;14.98;;;7.05;;
27618;SDS011;15039;50.830;4.730;2022-10-31T14:42:35;15.10;;;7.78;;
27618;SDS011;15039;50.830;4.730;2022-10-31T14:50:50;12.88;;;7.13;;
27618;SDS011;15039;50.830;4.730;2022-10-31T14:53:23;15.43;;;7.20;;
27618;SDS011;15039;50.830;4.730;2022-10-31T14:55:53;13.65;;;8.07;;
27618;SDS011;15039;50.830;4.730;2022-10-31T14:58:23;16.83;;;7.82;;
27618;SDS011;15039;50.830;4.730;2022-10-31T15:01:07;16.25;;;9.15;;
27618;SDS011;15039;50.830;4.730;2022-10-31T15:03:44;15.32;;;8.27;;
27618;SDS011;15039;50.830;4.730;2022-10-31T15:06:12;12.33;;;7.63;;
27618;SDS011;15039;50.830;4.730;2022-10-31T15:08:44;11.57;;;7.25;;
27618;SDS011;15039;50.830;4.730;2022-10-31T15:11:15;10.82;;;6.82;;
27618;SDS011;15039;50.830;4.730;2022-10-31T15:13:56;11.90;;;7.60;;
27618;SDS011;15039;50.830;4.730;2022-10-31T15:16:24;14.93;;;7.90;;
27618;SDS011;15039;50.830;4.730;2022-10-31T15:18:54;12.32;;;7.35;;
27618;SDS011;15039;50.830;4.730;2022-10-31T15:21:25;15.55;;;7.60;;
27618;SDS011;15039;50.830;4.730;2022-10-31T15:23:53;17.73;;;8.27;;
27618;SDS011;15039;50.830;4.730;2022-10-31T15:26:22;12.93;;;7.90;;
27618;SDS011;15039;50.830;4.730;2022-10-31T15:28:59;11.80;;;8.15;;
27618;SDS011;15039;50.830;4.730;2022-10-31T15:31:31;14.30;;;7.53;;
27618;SDS011;15039;50.830;4.730;2022-10-31T15:33:59;14.57;;;7.07;;
27618;SDS011;15039;50.830;4.730;2022-10-31T15:36:30;10.23;;;7.70;;
27618;SDS011;15039;50.830;4.730;2022-10-31T15:38:57;13.88;;;7.90;;
27618;SDS011;15039;50.830;4.730;2022-10-31T15:43:53;16.55;;;8.20;;
27618;SDS011;15039;50.830;4.730;2022-10-31T15:46:19;13.73;;;7.75;;
27618;SDS011;15039;50.830;4.730;2022-10-31T15:48:46;16.10;;;7.00;;
27618;SDS011;15039;50.830;4.730;2022-10-31T15:51:13;13.45;;;7.15;;
27618;SDS011;15039;50.830;4.730;2022-10-31T15:53:46;12.15;;;6.20;;
27618;SDS011;15039;50.830;4.730;2022-10-31T15:56:22;12.73;;;6.05;;
27618;SDS011;15039;50.830;4.730;2022-10-31T15:58:56;8.32;;;4.78;;
27618;SDS011;15039;50.830;4.730;2022-10-31T16:01:24;12.25;;;4.82;;
27618;SDS011;15039;50.830;4.730;2022-10-31T16:04:34;9.20;;;4.15;;
27618;SDS011;15039;50.830;4.730;2022-10-31T16:06:58;15.18;;;4.20;;
27618;SDS011;15039;50.830;4.730;2022-10-31T16:09:26;11.85;;;3.90;;
27618;SDS011;15039;50.830;4.730;2022-10-31T16:11:53;12.23;;;3.75;;
27618;SDS011;15039;50.830;4.730;2022-10-31T16:14:24;9.80;;;4.10;;
27618;SDS011;15039;50.830;4.730;2022-10-31T16:16:53;5.50;;;3.40;;
27618;SDS011;15039;50.830;4.730;2022-10-31T16:21:51;9.20;;;3.30;;
27618;SDS011;15039;50.830;4.730;2022-10-31T16:24:35;6.70;;;3.30;;
27618;SDS011;15039;50.830;4.730;2022-10-31T16:27:20;7.95;;;3.70;;
27618;SDS011;15039;50.830;4.730;2022-10-31T16:29:53;9.27;;;3.28;;
27618;SDS011;15039;50.830;4.730;2022-10-31T16:32:50;7.47;;;3.30;;
27618;SDS011;15039;50.830;4.730;2022-10-31T16:37:48;7.57;;;3.30;;
27618;SDS011;15039;50.830;4.730;2022-10-31T16:40:14;8.23;;;3.42;;
27618;SDS011;15039;50.830;4.730;2022-10-31T16:42:40;6.95;;;3.53;;
27618;SDS011;15039;50.830;4.730;2022-10-31T16:45:07;9.25;;;3.40;;
27618;SDS011;15039;50.830;4.730;2022-10-31T16:47:39;8.52;;;3.10;;
27618;SDS011;15039;50.830;4.730;2022-10-31T16:50:10;10.05;;;3.30;;
27618;SDS011;15039;50.830;4.730;2022-10-31T16:52:42;8.20;;;3.20;;
27618;SDS011;15039;50.830;4.730;2022-10-31T16:55:13;8.40;;;3.00;;
27618;SDS011;15039;50.830;4.730;2022-10-31T16:57:40;7.70;;;3.67;;
27618;SDS011;15039;50.830;4.730;2022-10-31T17:00:21;5.97;;;2.83;;
27618;SDS011;15039;50.830;4.730;2022-10-31T17:02:49;10.07;;;3.03;;
27618;SDS011;15039;50.830;4.730;2022-10-31T17:05:18;10.35;;;3.30;;
27618;SDS011;15039;50.830;4.730;2022-10-31T17:07:45;7.22;;;3.05;;
27618;SDS011;15039;50.830;4.730;2022-10-31T17:10:12;6.05;;;3.33;;
27618;SDS011;15039;50.830;4.730;2022-10-31T17:12:40;11.13;;;3.22;;
27618;SDS011;15039;50.830;4.730;2022-10-31T17:15:18;6.70;;;3.25;;
27618;SDS011;15039;50.830;4.730;2022-10-31T17:17:48;6.88;;;3.47;;
27618;SDS011;15039;50.830;4.730;2022-10-31T17:20:21;6.68;;;2.97;;
27618;SDS011;15039;50.830;4.730;2022-10-31T17:22:49;9.77;;;3.65;;
27618;SDS011;15039;50.830;4.730;2022-10-31T17:25:15;8.90;;;2.53;;
27618;SDS011;15039;50.830;4.730;2022-10-31T17:27:44;10.45;;;3.60;;
27618;SDS011;15039;50.830;4.730;2022-10-31T17:30:11;8.38;;;3.28;;
27618;SDS011;15039;50.830;4.730;2022-10-31T17:32:38;9.35;;;3.15;;